createdAt,value
2023-09-28T00:00:35.099Z,45.55
2023-09-28T00:02:36.768Z,41.90
2023-09-28T00:04:38.695Z,45.17
2023-09-28T00:06:40.344Z,48.50
2023-09-28T00:08:42.066Z,42.95
2023-09-28T00:10:44.042Z,42.75
2023-09-28T00:12:51.757Z,43.15
2023-09-28T00:14:53.481Z,34.88
2023-09-28T00:16:55.257Z,36.97
2023-09-28T00:18:57.059Z,38.85
2023-09-28T00:20:58.878Z,40.47
2023-09-28T00:23:00.674Z,35.63
2023-09-28T00:25:02.288Z,47.05
2023-09-28T00:27:03.935Z,46.97
2023-09-28T00:29:05.622Z,77.88
2023-09-28T00:31:07.657Z,80.80
2023-09-28T00:33:09.382Z,96.55
2023-09-28T00:35:12.006Z,56.45
2023-09-28T00:37:14.646Z,49.65
2023-09-28T00:39:16.325Z,48.33
2023-09-28T00:41:18.297Z,44.72
2023-09-28T00:43:27.396Z,44.25
2023-09-28T00:45:29.454Z,40.40
2023-09-28T00:47:32.960Z,39.45
2023-09-28T00:49:34.692Z,39.30
2023-09-28T00:51:36.603Z,41.65
2023-09-28T00:53:38.371Z,41.10
2023-09-28T00:55:41.435Z,38.13
2023-09-28T00:57:43.819Z,34.15
2023-09-28T00:59:45.399Z,32.75
2023-09-28T01:01:48.526Z,36.17
2023-09-28T01:03:50.236Z,33.05
2023-09-28T01:05:51.989Z,39.65
2023-09-28T01:07:54.480Z,34.35
2023-09-28T01:09:56.379Z,32.67
2023-09-28T01:11:58.905Z,32.05
2023-09-28T01:14:02.904Z,34.88
2023-09-28T01:16:04.871Z,35.15
2023-09-28T01:18:11.158Z,35.97
2023-09-28T01:20:19.930Z,33.13
2023-09-28T01:22:23.315Z,30.75
2023-09-28T01:24:24.867Z,37.25
2023-09-28T01:26:31.865Z,31.15
2023-09-28T01:28:34.217Z,37.70
2023-09-28T01:30:36.196Z,35.90
2023-09-28T01:32:37.792Z,31.80
2023-09-28T01:34:39.371Z,35.55
2023-09-28T01:36:41.290Z,36.20
2023-09-28T01:38:56.400Z,35.10
2023-09-28T01:40:58.971Z,35.25
2023-09-28T01:43:00.605Z,33.70
2023-09-28T01:45:02.259Z,32.85
2023-09-28T01:47:03.992Z,36.22
2023-09-28T01:49:05.710Z,32.15
2023-09-28T01:51:07.720Z,34.63
2023-09-28T01:53:09.470Z,35.42
2023-09-28T01:55:11.067Z,34.75
2023-09-28T01:57:12.962Z,32.47
2023-09-28T01:59:16.024Z,32.10
2023-09-28T02:01:30.483Z,33.45
2023-09-28T02:03:32.112Z,35.08
2023-09-28T02:05:34.351Z,43.65
2023-09-28T02:07:37.867Z,41.90
2023-09-28T02:09:39.520Z,39.78
2023-09-28T02:11:44.911Z,44.45
2023-09-28T02:13:46.545Z,43.60
2023-09-28T02:15:48.589Z,51.13
2023-09-28T02:17:51.359Z,55.35
2023-09-28T02:19:53.013Z,54.88
2023-09-28T02:21:54.858Z,49.67
2023-09-28T02:23:56.981Z,53.90
2023-09-28T02:26:06.557Z,48.20
2023-09-28T02:28:08.278Z,53.70
2023-09-28T02:30:13.454Z,54.03
2023-09-28T02:32:15.335Z,48.15
2023-09-28T02:34:17.031Z,44.70
2023-09-28T02:36:18.586Z,35.03
2023-09-28T02:38:20.958Z,37.67
2023-09-28T02:40:23.391Z,40.72
2023-09-28T02:42:25.058Z,41.95
2023-09-28T02:44:26.716Z,35.60
2023-09-28T02:46:28.533Z,43.75
2023-09-28T02:48:30.784Z,55.08
2023-09-28T02:50:32.403Z,57.05
2023-09-28T02:52:34.259Z,57.20
2023-09-28T02:54:35.802Z,49.88
2023-09-28T02:56:37.385Z,46.35
2023-09-28T02:58:38.955Z,49.38
2023-09-28T03:00:40.632Z,54.67
2023-09-28T03:02:42.373Z,47.65
2023-09-28T03:04:43.999Z,49.08
2023-09-28T03:06:47.296Z,45.60
2023-09-28T03:08:49.323Z,50.70
2023-09-28T03:10:52.243Z,46.95
2023-09-28T03:12:53.866Z,50.17
2023-09-28T03:14:55.514Z,47.30
2023-09-28T03:16:57.431Z,95.13
2023-09-28T03:18:59.059Z,81.32
2023-09-28T03:21:00.825Z,51.85
2023-09-28T03:23:03.269Z,60.28
2023-09-28T03:25:07.972Z,49.92
2023-09-28T03:27:11.123Z,45.30
2023-09-28T03:29:12.943Z,46.28
2023-09-28T03:31:14.627Z,47.78
2023-09-28T03:33:16.302Z,53.10
2023-09-28T03:35:19.245Z,59.53
2023-09-28T03:37:20.960Z,60.35
2023-09-28T03:39:22.552Z,55.92
2023-09-28T03:41:24.295Z,49.67
2023-09-28T03:43:26.008Z,45.95
2023-09-28T03:45:27.814Z,50.53
2023-09-28T03:47:29.444Z,48.25
2023-09-28T03:49:31.035Z,43.33
2023-09-28T03:51:32.884Z,40.58
2023-09-28T03:53:40.146Z,38.05
2023-09-28T03:55:42.038Z,38.47
2023-09-28T03:57:46.611Z,35.83
2023-09-28T03:59:48.237Z,38.03
2023-09-28T04:01:49.941Z,38.83
2023-09-28T04:03:51.758Z,39.42
2023-09-28T04:05:53.572Z,38.35
2023-09-28T04:07:55.299Z,36.80
2023-09-28T04:09:57.041Z,41.63
2023-09-28T04:11:58.619Z,42.15
2023-09-28T04:14:02.515Z,51.80
2023-09-28T04:16:04.308Z,49.90
2023-09-28T04:18:05.988Z,46.53
2023-09-28T04:20:10.514Z,49.35
2023-09-28T04:22:12.245Z,47.13
2023-09-28T04:24:13.808Z,42.95
2023-09-28T04:26:15.642Z,41.95
2023-09-28T04:28:17.287Z,38.33
2023-09-28T04:30:21.071Z,38.50
2023-09-28T04:32:24.526Z,38.00
2023-09-28T04:34:26.134Z,59.70
2023-09-28T04:36:28.148Z,41.47
2023-09-28T04:38:29.741Z,78.75
2023-09-28T04:40:31.370Z,69.00
2023-09-28T04:42:32.954Z,58.53
2023-09-28T04:44:34.568Z,122.65
2023-09-28T04:46:36.587Z,71.90
2023-09-28T04:48:38.355Z,89.28
2023-09-28T04:50:40.598Z,54.05
2023-09-28T04:52:44.919Z,50.47
2023-09-28T04:54:46.579Z,60.58
2023-09-28T04:56:48.544Z,59.63
2023-09-28T04:58:50.198Z,62.20
2023-09-28T05:00:51.899Z,56.28
2023-09-28T05:02:53.684Z,50.92
2023-09-28T05:04:55.439Z,55.88
2023-09-28T05:06:59.991Z,43.60
2023-09-28T05:09:01.671Z,43.40
2023-09-28T05:11:03.268Z,39.72
2023-09-28T05:13:04.904Z,39.45
2023-09-28T05:15:07.566Z,41.45
2023-09-28T05:17:09.226Z,38.60
2023-09-28T05:19:10.822Z,36.72
2023-09-28T05:21:13.805Z,44.42
2023-09-28T05:23:15.477Z,51.67
2023-09-28T05:25:17.046Z,32.80
2023-09-28T05:27:19.003Z,30.05
2023-09-28T05:29:20.623Z,26.45
2023-09-28T05:31:23.112Z,21.35
2023-09-28T05:33:25.154Z,27.50
2023-09-28T05:35:26.917Z,24.80
2023-09-28T05:37:28.506Z,17.88
2023-09-28T05:39:30.745Z,18.52
2023-09-28T05:41:32.645Z,17.35
2023-09-28T05:43:34.217Z,19.77
2023-09-28T05:45:35.808Z,28.42
2023-09-28T05:47:37.618Z,24.60
2023-09-28T05:49:39.271Z,25.42
2023-09-28T05:51:40.827Z,20.02
2023-09-28T05:53:44.706Z,17.75
2023-09-28T05:55:48.578Z,17.85
2023-09-28T05:57:50.369Z,16.02
2023-09-28T05:59:52.391Z,15.30
2023-09-28T06:01:54.438Z,17.15
2023-09-28T06:03:56.121Z,24.30
2023-09-28T06:05:57.825Z,17.08
2023-09-28T06:08:01.201Z,15.10
2023-09-28T06:10:03.641Z,16.20
2023-09-28T06:12:06.347Z,14.43
2023-09-28T06:14:09.728Z,18.73
2023-09-28T06:16:13.637Z,14.10
2023-09-28T06:18:15.211Z,18.73
2023-09-28T06:20:18.416Z,19.08
2023-09-28T06:22:20.172Z,26.50
2023-09-28T06:24:22.370Z,18.27
2023-09-28T06:26:39.071Z,32.05
2023-09-28T06:28:43.338Z,23.70
2023-09-28T06:30:45.006Z,17.02
2023-09-28T06:32:46.688Z,26.88
2023-09-28T06:34:48.267Z,17.52
2023-09-28T06:36:51.659Z,20.95
2023-09-28T06:38:56.356Z,19.92
2023-09-28T06:40:58.024Z,23.23
2023-09-28T06:42:59.630Z,19.35
2023-09-28T06:45:01.484Z,18.20
2023-09-28T06:47:03.313Z,19.50
2023-09-28T06:49:09.940Z,16.65
2023-09-28T06:51:12.301Z,21.27
2023-09-28T06:53:15.165Z,19.10
2023-09-28T06:55:16.856Z,17.58
2023-09-28T06:57:18.408Z,15.68
2023-09-28T06:59:20.552Z,19.65
2023-09-28T07:01:22.424Z,16.38
2023-09-28T07:03:24.124Z,18.27
2023-09-28T07:05:26.087Z,20.38
2023-09-28T07:07:30.444Z,23.58
2023-09-28T07:09:38.036Z,20.05
2023-09-28T07:11:49.176Z,19.17
2023-09-28T07:13:50.825Z,26.33
2023-09-28T07:15:52.657Z,19.63
2023-09-28T07:17:54.279Z,22.60
2023-09-28T07:19:56.344Z,23.38
2023-09-28T07:21:58.110Z,18.85
2023-09-28T07:24:16.242Z,18.63
2023-09-28T07:26:20.241Z,21.58
2023-09-28T07:28:22.303Z,21.35
2023-09-28T07:30:24.039Z,18.50
2023-09-28T07:32:25.760Z,15.25
2023-09-28T07:34:28.246Z,19.67
2023-09-28T07:36:30.106Z,18.17
2023-09-28T07:38:33.301Z,17.77
2023-09-28T07:40:46.946Z,22.92
2023-09-28T07:42:50.150Z,19.05
2023-09-28T07:44:55.518Z,14.90
2023-09-28T07:46:57.466Z,16.33
2023-09-28T07:48:59.069Z,18.55
2023-09-28T07:51:00.645Z,21.50
2023-09-28T07:53:02.341Z,19.30
2023-09-28T07:55:04.213Z,14.80
2023-09-28T07:57:08.265Z,15.80
2023-09-28T07:59:10.482Z,12.07
2023-09-28T08:01:13.761Z,12.35
2023-09-28T08:03:15.974Z,17.17
2023-09-28T08:05:17.825Z,12.50
2023-09-28T08:07:19.470Z,14.90
2023-09-28T08:09:21.091Z,14.35
2023-09-28T08:11:23.437Z,18.25
2023-09-28T08:13:25.170Z,15.00
2023-09-28T08:15:35.921Z,19.05
2023-09-28T08:17:41.241Z,13.70
2023-09-28T08:19:44.206Z,18.35
2023-09-28T08:21:45.841Z,17.50
2023-09-28T08:23:47.953Z,17.38
2023-09-28T08:25:49.984Z,13.18
2023-09-28T08:27:51.603Z,17.38
2023-09-28T08:31:56.474Z,16.85
2023-09-28T08:34:04.588Z,19.85
2023-09-28T08:36:10.943Z,12.25
2023-09-28T08:40:16.631Z,15.18
2023-09-28T08:42:24.378Z,14.48
2023-09-28T08:44:30.506Z,18.67
2023-09-28T08:46:46.032Z,13.75
2023-09-28T08:48:48.794Z,13.82
2023-09-28T08:50:59.562Z,13.45
2023-09-28T08:53:01.829Z,16.77
2023-09-28T08:55:05.104Z,17.50
2023-09-28T08:57:06.719Z,13.98
2023-09-28T08:59:10.728Z,15.57
2023-09-28T09:01:14.052Z,20.13
2023-09-28T09:03:18.029Z,16.85
2023-09-28T09:05:20.208Z,15.55
2023-09-28T09:07:23.269Z,12.30
2023-09-28T09:09:25.964Z,12.68
2023-09-28T09:11:32.989Z,21.30
2023-09-28T09:13:34.670Z,12.35
2023-09-28T09:15:37.865Z,16.85
2023-09-28T09:17:39.802Z,12.38
2023-09-28T09:19:42.894Z,12.57
2023-09-28T09:21:45.630Z,15.45
2023-09-28T09:24:03.866Z,16.73
2023-09-28T09:26:05.682Z,17.90
2023-09-28T09:28:07.248Z,15.07
2023-09-28T09:30:09.516Z,15.05
2023-09-28T09:32:14.559Z,15.00
2023-09-28T09:34:20.152Z,12.40
2023-09-28T09:36:21.729Z,12.10
2023-09-28T09:38:32.761Z,13.38
2023-09-28T09:40:34.514Z,12.15
2023-09-28T09:42:36.236Z,13.38
2023-09-28T09:44:37.902Z,14.27
2023-09-28T09:46:40.098Z,11.35
2023-09-28T09:48:43.492Z,18.25
2023-09-28T09:50:45.294Z,10.95
2023-09-28T09:52:46.962Z,12.48
2023-09-28T09:54:48.739Z,10.10
2023-09-28T09:56:52.098Z,9.05
2023-09-28T09:58:57.326Z,13.68
2023-09-28T10:01:02.044Z,20.70
2023-09-28T10:03:06.732Z,60.22
2023-09-28T10:05:10.673Z,42.60
2023-09-28T10:07:13.886Z,16.85
2023-09-28T10:09:20.799Z,18.52
2023-09-28T10:11:23.612Z,20.00
2023-09-28T10:13:25.398Z,12.25
2023-09-28T10:15:27.454Z,14.23
2023-09-28T10:17:30.056Z,17.08
2023-09-28T10:19:32.271Z,10.68
2023-09-28T10:21:38.962Z,8.65
2023-09-28T10:23:41.571Z,11.38
2023-09-28T10:26:14.807Z,14.50
2023-09-28T10:28:16.952Z,10.68
2023-09-28T10:30:21.255Z,8.88
2023-09-28T10:32:31.231Z,6.80
2023-09-28T10:34:33.170Z,16.42
2023-09-28T10:36:37.300Z,15.00
2023-09-28T10:38:42.237Z,12.00
2023-09-28T10:41:06.774Z,12.90
2023-09-28T10:43:11.897Z,10.13
2023-09-28T10:45:13.539Z,11.25
2023-09-28T10:47:15.526Z,8.98
2023-09-28T10:49:29.947Z,12.43
2023-09-28T10:51:31.921Z,13.55
2023-09-28T10:53:33.546Z,14.05
2023-09-28T10:55:35.632Z,10.70
2023-09-28T10:57:37.232Z,12.70
2023-09-28T10:59:41.834Z,12.95
2023-09-28T11:01:43.920Z,9.63
2023-09-28T11:03:47.425Z,6.50
2023-09-28T11:05:50.608Z,8.77
2023-09-28T11:07:52.600Z,13.00
2023-09-28T11:09:54.511Z,10.82
2023-09-28T11:11:56.507Z,7.70
2023-09-28T11:14:03.545Z,9.52
2023-09-28T11:16:06.721Z,10.00
2023-09-28T11:18:08.456Z,10.18
2023-09-28T11:20:13.424Z,8.18
2023-09-28T11:22:16.525Z,10.63
2023-09-28T11:24:18.108Z,10.63
2023-09-28T11:26:20.736Z,11.32
2023-09-28T11:28:25.832Z,15.00
2023-09-28T11:30:27.470Z,15.23
2023-09-28T11:32:29.153Z,18.50
2023-09-28T11:34:39.430Z,11.15
2023-09-28T11:36:41.945Z,10.63
2023-09-28T11:38:45.533Z,7.95
2023-09-28T11:40:49.147Z,8.55
2023-09-28T11:42:53.130Z,10.93
2023-09-28T11:44:58.701Z,11.32
2023-09-28T11:47:00.429Z,7.65
2023-09-28T11:49:05.849Z,9.68
2023-09-28T11:51:10.154Z,10.55
2023-09-28T11:53:11.815Z,11.50
2023-09-28T11:55:16.178Z,9.63
2023-09-28T11:57:19.916Z,9.93
2023-09-28T11:59:21.833Z,12.77
2023-09-28T12:01:23.670Z,10.13
2023-09-28T12:03:25.309Z,12.27
2023-09-28T12:05:27.014Z,9.32
2023-09-28T12:07:28.744Z,10.23
2023-09-28T12:09:32.348Z,8.57
2023-09-28T12:11:35.246Z,10.82
2023-09-28T12:13:38.100Z,11.10
2023-09-28T12:15:39.857Z,7.28
2023-09-28T12:17:45.227Z,8.43
2023-09-28T12:19:46.937Z,14.30
2023-09-28T12:21:48.781Z,8.77
2023-09-28T12:23:50.375Z,12.85
2023-09-28T12:25:52.633Z,12.13
2023-09-28T12:27:55.309Z,8.70
2023-09-28T12:29:57.033Z,10.38
2023-09-28T12:31:59.749Z,12.35
2023-09-28T12:34:01.368Z,11.40
2023-09-28T12:36:03.163Z,13.05
2023-09-28T12:38:06.063Z,11.40
2023-09-28T12:40:13.329Z,9.25
2023-09-28T12:42:16.790Z,11.40
2023-09-28T12:44:18.797Z,11.40
2023-09-28T12:46:20.809Z,13.60
2023-09-28T12:48:22.476Z,10.13
2023-09-28T12:50:24.086Z,6.30
2023-09-28T12:52:28.300Z,10.13
2023-09-28T12:54:30.379Z,8.32
2023-09-28T12:56:32.301Z,7.75
2023-09-28T12:58:33.958Z,9.82
2023-09-28T13:00:36.242Z,10.15
2023-09-28T13:02:38.921Z,6.60
2023-09-28T13:04:40.747Z,8.50
2023-09-28T13:06:42.784Z,10.43
2023-09-28T13:08:44.419Z,7.72
2023-09-28T13:10:46.257Z,8.07
2023-09-28T13:12:47.969Z,12.90
2023-09-28T13:14:51.254Z,8.57
2023-09-28T13:16:57.318Z,14.23
2023-09-28T13:19:00.728Z,9.10
2023-09-28T13:21:02.386Z,10.85
2023-09-28T13:23:04.222Z,10.95
2023-09-28T13:25:07.535Z,9.95
2023-09-28T13:27:09.253Z,10.30
2023-09-28T13:29:10.929Z,11.35
2023-09-28T13:31:12.592Z,7.20
2023-09-28T13:33:15.421Z,10.02
2023-09-28T13:35:17.867Z,9.50
2023-09-28T13:37:19.525Z,15.25
2023-09-28T13:39:31.439Z,8.75
2023-09-28T13:41:33.303Z,10.18
2023-09-28T13:43:34.927Z,7.28
2023-09-28T13:45:37.791Z,10.65
2023-09-28T13:47:39.465Z,8.40
2023-09-28T13:49:41.165Z,10.15
2023-09-28T13:51:42.709Z,7.25
2023-09-28T13:53:44.956Z,10.82
2023-09-28T13:55:50.544Z,14.95
2023-09-28T13:57:52.544Z,8.50
2023-09-28T13:59:57.899Z,11.65
2023-09-28T14:01:59.986Z,9.98
2023-09-28T14:04:02.111Z,8.65
2023-09-28T14:06:07.108Z,13.95
2023-09-28T14:08:11.843Z,15.18
2023-09-28T14:10:16.491Z,8.85
2023-09-28T14:12:18.039Z,8.98
2023-09-28T14:14:19.746Z,17.48
2023-09-28T14:16:21.371Z,8.90
2023-09-28T14:18:23.060Z,8.90
2023-09-28T14:20:28.299Z,13.00
2023-09-28T14:22:30.013Z,7.45
2023-09-28T14:24:32.768Z,9.23
2023-09-28T14:26:38.183Z,13.57
2023-09-28T14:28:40.794Z,14.82
2023-09-28T14:30:42.461Z,8.35
2023-09-28T14:32:45.461Z,22.02
2023-09-28T14:34:47.438Z,6.70
2023-09-28T14:36:49.418Z,10.57
2023-09-28T14:38:52.187Z,7.18
2023-09-28T14:40:53.781Z,10.45
2023-09-28T14:42:55.352Z,13.18
2023-09-28T14:44:57.142Z,6.72
2023-09-28T14:46:59.299Z,6.82
2023-09-28T14:49:00.906Z,11.60
2023-09-28T14:51:02.461Z,8.80
2023-09-28T14:53:11.730Z,7.50
2023-09-28T14:55:14.616Z,9.65
2023-09-28T14:57:16.331Z,8.88
2023-09-28T14:59:19.649Z,9.48
2023-09-28T15:01:21.893Z,7.97
2023-09-28T15:03:23.739Z,8.15
2023-09-28T15:05:27.233Z,9.20
2023-09-28T15:07:28.842Z,13.27
2023-09-28T15:09:30.924Z,11.00
2023-09-28T15:11:32.869Z,9.45
2023-09-28T15:13:34.832Z,13.88
2023-09-28T15:15:37.104Z,10.93
2023-09-28T15:17:38.867Z,13.25
2023-09-28T15:19:40.544Z,12.27
2023-09-28T15:21:42.137Z,9.18
2023-09-28T15:23:43.739Z,8.98
2023-09-28T15:25:45.380Z,13.48
2023-09-28T15:27:46.973Z,12.13
2023-09-28T15:29:49.285Z,10.18
2023-09-28T15:31:50.962Z,13.15
2023-09-28T15:33:52.784Z,12.48
2023-09-28T15:35:58.769Z,13.40
2023-09-28T15:38:00.995Z,11.38
2023-09-28T15:40:05.126Z,14.18
2023-09-28T15:42:06.782Z,7.07
2023-09-28T15:44:09.573Z,9.82
2023-09-28T15:46:11.280Z,12.60
2023-09-28T15:48:13.564Z,8.85
2023-09-28T15:50:15.434Z,9.98
2023-09-28T15:52:17.865Z,12.82
2023-09-28T15:54:19.464Z,9.82
2023-09-28T15:56:21.252Z,10.48
2023-09-28T15:58:22.900Z,12.27
2023-09-28T16:00:37.216Z,8.82
2023-09-28T16:02:40.243Z,13.15
2023-09-28T16:04:41.907Z,9.52
2023-09-28T16:06:43.611Z,14.70
2023-09-28T16:08:45.211Z,14.93
2023-09-28T16:10:46.837Z,12.82
2023-09-28T16:12:48.375Z,11.25
2023-09-28T16:14:50.023Z,12.73
2023-09-28T16:16:51.664Z,17.23
2023-09-28T16:18:53.797Z,10.50
2023-09-28T16:20:55.717Z,9.23
2023-09-28T16:22:57.350Z,11.20
2023-09-28T16:24:59.032Z,17.75
2023-09-28T16:27:01.893Z,14.18
2023-09-28T16:29:03.577Z,13.02
2023-09-28T16:31:05.198Z,13.73
2023-09-28T16:33:06.895Z,14.85
2023-09-28T16:35:09.010Z,9.93
2023-09-28T16:37:10.619Z,14.38
2023-09-28T16:39:12.410Z,11.20
2023-09-28T16:41:14.775Z,11.70
2023-09-28T16:43:16.382Z,10.90
2023-09-28T16:45:18.009Z,15.60
2023-09-28T16:47:19.646Z,15.40
2023-09-28T16:49:21.326Z,19.92
2023-09-28T16:51:22.934Z,14.45
2023-09-28T16:53:24.613Z,17.00
2023-09-28T16:55:26.391Z,19.67
2023-09-28T16:57:28.144Z,17.83
2023-09-28T16:59:29.843Z,18.95
2023-09-28T17:01:31.485Z,13.63
2023-09-28T17:03:33.731Z,13.73
2023-09-28T17:05:35.459Z,20.42
2023-09-28T17:07:37.166Z,20.85
2023-09-28T17:09:38.785Z,22.35
2023-09-28T17:11:41.482Z,18.30
2023-09-28T17:13:43.426Z,19.38
2023-09-28T17:15:49.619Z,22.80
2023-09-28T17:17:52.159Z,19.48
2023-09-28T17:19:55.980Z,27.40
2023-09-28T17:21:57.772Z,31.05
2023-09-28T17:23:59.500Z,34.00
2023-09-28T17:26:01.182Z,28.73
2023-09-28T17:28:03.309Z,38.22
2023-09-28T17:30:06.597Z,34.42
2023-09-28T17:32:08.725Z,33.22
2023-09-28T17:34:10.670Z,42.72
2023-09-28T17:36:12.281Z,38.10
2023-09-28T17:38:13.930Z,30.95
2023-09-28T17:40:15.502Z,28.38
2023-09-28T17:42:17.088Z,26.98
2023-09-28T17:44:19.191Z,27.15
2023-09-28T17:46:20.793Z,36.70
2023-09-28T17:48:22.480Z,30.85
2023-09-28T17:50:24.129Z,36.22
2023-09-28T17:52:25.735Z,39.08
2023-09-28T17:54:28.000Z,44.08
2023-09-28T17:56:31.409Z,130.73
2023-09-28T17:58:33.059Z,223.55
2023-09-28T18:00:34.847Z,241.20
2023-09-28T18:02:36.500Z,252.27
2023-09-28T18:04:42.500Z,270.90
2023-09-28T18:06:44.194Z,284.55
2023-09-28T18:08:48.015Z,276.50
2023-09-28T18:10:49.626Z,361.25
2023-09-28T18:12:52.174Z,361.30
2023-09-28T18:14:53.878Z,249.57
2023-09-28T18:16:55.678Z,81.70
2023-09-28T18:18:57.408Z,51.20
2023-09-28T18:20:59.004Z,52.75
2023-09-28T18:23:00.736Z,94.15
2023-09-28T18:25:02.358Z,84.00
2023-09-28T18:27:08.064Z,56.85
2023-09-28T18:29:09.789Z,31.42
2023-09-28T18:31:12.742Z,32.00
2023-09-28T18:33:14.705Z,35.08
2023-09-28T18:35:16.513Z,19.70
2023-09-28T18:37:19.353Z,24.83
2023-09-28T18:39:21.246Z,22.10
2023-09-28T18:41:22.893Z,28.15
2023-09-28T18:43:24.649Z,26.98
2023-09-28T18:45:26.250Z,32.33
2023-09-28T18:47:29.722Z,24.17
2023-09-28T18:49:33.636Z,20.17
2023-09-28T18:51:35.422Z,30.60
2023-09-28T18:53:37.013Z,29.38
2023-09-28T18:55:39.689Z,76.15
2023-09-28T18:57:41.419Z,28.35
2023-09-28T18:59:43.411Z,19.65
2023-09-28T19:01:45.078Z,20.60
2023-09-28T19:03:47.457Z,20.83
2023-09-28T19:05:49.168Z,88.20
2023-09-28T19:07:50.941Z,30.30
2023-09-28T19:09:52.609Z,28.10
2023-09-28T19:11:54.209Z,34.08
2023-09-28T19:13:56.186Z,25.38
2023-09-28T19:15:58.180Z,19.15
2023-09-28T19:17:59.829Z,23.08
2023-09-28T19:20:02.715Z,20.05
2023-09-28T19:22:04.898Z,242.55
2023-09-28T19:24:06.944Z,47.75
2023-09-28T19:26:08.518Z,36.83
2023-09-28T19:28:12.159Z,29.40
2023-09-28T19:30:14.567Z,20.70
2023-09-28T19:32:16.214Z,29.60
2023-09-28T19:34:17.845Z,39.33
2023-09-28T19:36:19.443Z,90.60
2023-09-28T19:38:21.057Z,39.20
2023-09-28T19:40:23.722Z,23.80
2023-09-28T19:42:25.284Z,27.63
2023-09-28T19:44:26.939Z,30.80
2023-09-28T19:46:29.250Z,22.00
2023-09-28T19:48:31.127Z,22.70
2023-09-28T19:50:32.924Z,23.02
2023-09-28T19:52:34.790Z,22.90
2023-09-28T19:54:36.537Z,31.08
2023-09-28T19:56:38.190Z,25.38
2023-09-28T19:58:39.820Z,21.63
2023-09-28T20:00:41.405Z,24.58
2023-09-28T20:02:43.135Z,26.38
2023-09-28T20:04:45.422Z,28.92
2023-09-28T20:06:46.990Z,35.83
2023-09-28T20:08:48.629Z,23.15
2023-09-28T20:10:50.232Z,31.63
2023-09-28T20:12:52.126Z,32.58
2023-09-28T20:14:53.661Z,34.28
2023-09-28T20:16:56.429Z,31.52
2023-09-28T20:18:58.022Z,35.85
2023-09-28T20:21:04.409Z,34.58
2023-09-28T20:23:06.238Z,32.67
2023-09-28T20:25:08.297Z,33.17
2023-09-28T20:27:10.413Z,29.17
2023-09-28T20:29:11.982Z,30.08
2023-09-28T20:31:13.636Z,29.52
2023-09-28T20:33:15.339Z,34.70
2023-09-28T20:35:17.149Z,33.30
2023-09-28T20:37:18.853Z,33.97
2023-09-28T20:39:20.417Z,29.60
2023-09-28T20:41:22.146Z,26.85
2023-09-28T20:43:24.097Z,32.20
2023-09-28T20:45:25.644Z,26.92
2023-09-28T20:47:27.434Z,26.02
2023-09-28T20:49:29.022Z,29.10
2023-09-28T20:51:33.747Z,33.25
2023-09-28T20:53:35.387Z,30.95
2023-09-28T20:55:37.350Z,30.85
2023-09-28T20:57:39.040Z,32.58
2023-09-28T20:59:40.663Z,30.48
2023-09-28T21:01:42.358Z,26.08
2023-09-28T21:03:45.350Z,24.92
2023-09-28T21:05:47.047Z,26.52
2023-09-28T21:07:49.040Z,27.92
2023-09-28T21:09:50.587Z,26.73
2023-09-28T21:11:55.169Z,28.17
2023-09-28T21:13:57.177Z,26.58
2023-09-28T21:15:59.249Z,27.15
2023-09-28T21:18:01.070Z,28.73
2023-09-28T21:20:04.361Z,27.05
2023-09-28T21:22:06.162Z,29.83
2023-09-28T21:24:08.006Z,37.63
2023-09-28T21:26:09.563Z,41.10
2023-09-28T21:28:11.408Z,155.30
2023-09-28T21:30:13.535Z,415.42
2023-09-28T21:32:15.446Z,79.90
2023-09-28T21:34:17.060Z,51.15
2023-09-28T21:36:18.633Z,54.55
2023-09-28T21:38:20.218Z,44.80
2023-09-28T21:40:21.814Z,37.00
2023-09-28T21:42:23.446Z,42.90
2023-09-28T21:44:25.050Z,33.80
2023-09-28T21:46:26.654Z,42.30
2023-09-28T21:48:28.402Z,40.30
2023-09-28T21:50:30.105Z,39.47
2023-09-28T21:52:31.777Z,35.00
2023-09-28T21:54:33.380Z,37.95
2023-09-28T21:56:34.953Z,34.22
2023-09-28T21:58:36.865Z,30.77
2023-09-28T22:00:40.945Z,35.13
2023-09-28T22:02:42.651Z,41.28
2023-09-28T22:04:44.437Z,38.47
2023-09-28T22:06:46.031Z,40.67
2023-09-28T22:08:47.684Z,39.85
2023-09-28T22:10:49.281Z,39.53
2023-09-28T22:12:50.886Z,32.97
2023-09-28T22:14:52.526Z,29.60
2023-09-28T22:16:54.873Z,28.65
2023-09-28T22:18:57.261Z,26.45
2023-09-28T22:20:59.688Z,30.52
2023-09-28T22:23:01.399Z,30.63
2023-09-28T22:25:07.057Z,21.50
2023-09-28T22:27:08.643Z,18.85
2023-09-28T22:29:10.343Z,19.65
2023-09-28T22:31:11.976Z,17.63
2023-09-28T22:33:13.652Z,22.67
2023-09-28T22:35:15.265Z,15.25
2023-09-28T22:37:17.670Z,22.17
2023-09-28T22:39:19.884Z,19.65
2023-09-28T22:41:21.500Z,21.60
2023-09-28T22:43:23.208Z,26.45
2023-09-28T22:45:25.298Z,23.20
2023-09-28T22:47:27.165Z,25.77
2023-09-28T22:49:28.830Z,32.85
2023-09-28T22:51:30.677Z,28.60
2023-09-28T22:53:32.348Z,26.02
2023-09-28T22:55:34.148Z,28.85
2023-09-28T22:57:35.847Z,25.55
2023-09-28T22:59:37.752Z,25.38
2023-09-28T23:01:39.467Z,26.73
2023-09-28T23:03:41.412Z,27.15
2023-09-28T23:05:44.313Z,24.73
2023-09-28T23:07:45.943Z,25.58
2023-09-28T23:09:47.555Z,24.30
2023-09-28T23:11:49.341Z,27.50
2023-09-28T23:13:51.413Z,27.33
2023-09-28T23:15:53.230Z,25.55
2023-09-28T23:17:55.483Z,31.15
2023-09-28T23:19:57.145Z,32.75
2023-09-28T23:21:58.908Z,29.02
2023-09-28T23:24:00.656Z,33.08
2023-09-28T23:26:07.540Z,36.20
2023-09-28T23:28:10.360Z,32.55
2023-09-28T23:30:20.205Z,30.88
2023-09-28T23:32:22.312Z,34.67
2023-09-28T23:34:25.004Z,32.75
2023-09-28T23:36:28.747Z,33.47
2023-09-28T23:38:33.305Z,37.45
2023-09-28T23:40:34.903Z,39.15
2023-09-28T23:42:36.459Z,41.15
2023-09-28T23:44:38.081Z,42.22
2023-09-28T23:46:43.439Z,44.08
2023-09-28T23:48:45.008Z,38.17
2023-09-28T23:50:46.596Z,41.53
2023-09-28T23:52:49.198Z,41.63
2023-09-28T23:54:50.788Z,44.45
2023-09-28T23:56:52.364Z,42.38
2023-09-28T23:58:54.459Z,46.80
